Lake George, Colorado
Current Conditions -  °F | °C
As of 8:58 AM on Friday 31 Oct 2014 (Local Time) from KAFF Reporting Station
Clear Clear  
Wind Chill: 26°   Ceiling: Unl
Heat Index: 35°   Visibility: 10mi
Dew Point: 26°   Wind: 13mph
Humidity: 69%   Direction: 150°SSE
Pressure: 30.39"   Gusts: NA
Location:  38.98°N, 105.35°W
Report Text: KAFF 311458Z AUTO 15011KT 10SM CLR 02/M04 A3039 RMK AO2 SLP304 T00161036 55003
Loading
Personal Weather Stations






























Interactive Weather Map
Tropical Storm Tracking
New forecast layout! Learn more

10-Day Weather Forecast

Advertisements
Track Severe Weather on mobile